Time;durP1;ratioP1;P1;durP2;ratioP2;P2;SDS_P1;SDS_P2;PMS_P1;PMS_P2;Temp;Humidity;BMP_temperature;BMP_pressure;BME280_temperature;BME280_humidity;BME280_pressure;Samples;Min_cycle;Max_cycle;Signal;HPM_P1;HPM_P2
2021/05/30 00:01:04;;;;;;;4.23;3.93;;;19.30;42.60;;;;;;4984518;28;20461;-48
2021/05/30 00:03:29;;;;;;;4.10;3.67;;;19.30;42.70;;;;;;4988918;28;20440;-45
2021/05/30 00:05:55;;;;;;;3.80;3.50;;;19.30;42.70;;;;;;4990718;28;20809;-46
2021/05/30 00:08:20;;;;;;;4.40;3.73;;;19.30;42.70;;;;;;4989640;28;20198;-46
2021/05/30 00:10:46;;;;;;;3.70;3.40;;;19.30;42.80;;;;;;4984167;28;20246;-47
2021/05/30 00:13:12;;;;;;;3.30;3.00;;;19.30;43.10;;;;;;4989782;28;20318;-47
2021/05/30 00:15:37;;;;;;;3.73;3.43;;;19.30;43.70;;;;;;4983974;28;20186;-48
2021/05/30 00:18:03;;;;;;;4.70;3.57;;;19.40;43.00;;;;;;4987791;28;20550;-46
2021/05/30 00:20:29;;;;;;;4.40;4.00;;;19.40;42.50;;;;;;4989282;28;20201;-48
2021/05/30 00:22:55;;;;;;;3.07;2.83;;;19.30;42.40;;;;;;4991684;28;20202;-48
2021/05/30 00:25:20;;;;;;;4.80;3.47;;;19.20;42.70;;;;;;4986745;28;20292;-48
2021/05/30 00:27:46;;;;;;;4.20;3.57;;;19.10;42.90;;;;;;4991763;28;20198;-44
2021/05/30 00:30:12;;;;;;;5.13;3.60;;;19.10;43.00;;;;;;4989984;28;20238;-45
2021/05/30 00:32:38;;;;;;;4.47;3.03;;;19.00;43.00;;;;;;4990326;28;20207;-48
2021/05/30 00:35:04;;;;;;;3.63;3.33;;;19.00;43.20;;;;;;4988037;28;20985;-45
2021/05/30 00:37:30;;;;;;;4.03;3.73;;;18.90;43.30;;;;;;4988635;28;20277;-44
2021/05/30 00:39:55;;;;;;;3.63;3.27;;;18.90;43.50;;;;;;4990605;28;21103;-45
2021/05/30 00:42:21;;;;;;;3.27;2.97;;;18.90;43.40;;;;;;4989336;28;20249;-45
2021/05/30 00:44:46;;;;;;;6.80;3.40;;;18.80;43.50;;;;;;4987595;28;20195;-49
2021/05/30 00:47:12;;;;;;;6.50;3.30;;;18.90;43.50;;;;;;4988443;28;20566;-48
2021/05/30 00:49:38;;;;;;;3.70;3.40;;;18.80;43.60;;;;;;4988696;28;20219;-44
2021/05/30 00:52:05;;;;;;;4.73;3.70;;;18.80;43.60;;;;;;4987122;28;20198;-44
2021/05/30 00:54:31;;;;;;;3.83;3.00;;;18.80;43.60;;;;;;4985368;28;20194;-47
2021/05/30 00:56:57;;;;;;;3.37;3.10;;;18.70;43.60;;;;;;4987055;28;20945;-44
2021/05/30 00:59:22;;;;;;;3.50;3.20;;;18.70;43.50;;;;;;4989840;28;20452;-46
2021/05/30 01:01:48;;;;;;;6.03;4.20;;;18.70;43.40;;;;;;4986868;28;20452;-45
2021/05/30 01:04:14;;;;;;;3.90;3.60;;;18.70;43.60;;;;;;4986754;28;20219;-47
2021/05/30 01:06:40;;;;;;;4.10;3.73;;;18.60;43.60;;;;;;4987726;28;20194;-45
2021/05/30 01:09:06;;;;;;;3.83;3.47;;;18.60;43.70;;;;;;4986421;28;20259;-47
2021/05/30 01:11:33;;;;;;;3.57;3.27;;;18.60;43.80;;;;;;4990491;28;20512;-47
2021/05/30 01:13:59;;;;;;;4.50;3.37;;;18.60;43.80;;;;;;4988225;28;20658;-44
2021/05/30 01:16:26;;;;;;;4.10;3.67;;;18.60;43.70;;;;;;4990065;28;20442;-45
2021/05/30 01:18:54;;;;;;;4.03;3.40;;;18.50;43.70;;;;;;4990927;28;20815;-44
2021/05/30 01:21:20;;;;;;;3.77;3.47;;;18.50;43.90;;;;;;4990119;28;20434;-47
2021/05/30 01:23:53;;;;;;;4.27;3.60;;;18.50;44.30;;;;;;4986804;28;20453;-44
2021/05/30 01:26:20;;;;;;;5.50;3.90;;;18.40;44.30;;;;;;4989654;28;20492;-44
2021/05/30 01:28:47;;;;;;;4.83;3.70;;;18.40;44.20;;;;;;4990502;28;20496;-47
2021/05/30 01:31:14;;;;;;;5.67;3.93;;;18.40;44.10;;;;;;4988988;28;20525;-45
2021/05/30 01:33:39;;;;;;;5.27;3.73;;;18.40;44.10;;;;;;4988121;28;20457;-44
2021/05/30 01:36:06;;;;;;;6.20;4.20;;;18.40;44.10;;;;;;4985772;28;20446;-47
2021/05/30 01:38:32;;;;;;;4.83;3.97;;;18.40;44.20;;;;;;4989239;28;20702;-45
2021/05/30 01:40:57;;;;;;;4.30;3.90;;;18.50;44.40;;;;;;4987488;28;20897;-44
2021/05/30 01:43:23;;;;;;;4.30;4.00;;;18.40;44.40;;;;;;4983882;28;20541;-44
2021/05/30 01:45:49;;;;;;;5.33;3.80;;;18.40;44.40;;;;;;4985025;28;20290;-49
2021/05/30 01:48:15;;;;;;;4.10;3.70;;;18.40;44.40;;;;;;4982006;28;20195;-45
2021/05/30 01:50:47;;;;;;;5.40;3.40;;;18.30;44.10;;;;;;4989178;28;20578;-44
2021/05/30 01:53:20;;;;;;;5.27;4.07;;;18.30;44.10;;;;;;4992643;28;20669;-48
2021/05/30 01:56:55;;;;;;;6.20;3.90;;;18.20;44.00;;;;;;4986094;28;20457;-45
2021/05/30 01:58:43;;;;;;;4.40;3.90;;;18.20;44.20;;;;;;4990623;28;20941;-45
2021/05/30 02:01:11;;;;;;;4.93;4.00;;;18.10;44.20;;;;;;4990033;28;20449;-45
2021/05/30 02:03:39;;;;;;;6.63;4.03;;;18.00;44.30;;;;;;4993165;28;20452;-45
2021/05/30 02:06:05;;;;;;;4.60;4.20;;;18.00;44.40;;;;;;4992067;28;20820;-44
2021/05/30 02:08:31;;;;;;;4.27;3.43;;;17.90;44.40;;;;;;4986896;28;20437;-44
2021/05/30 02:10:57;;;;;;;6.07;3.70;;;17.80;44.80;;;;;;4993696;28;20199;-44
2021/05/30 02:13:25;;;;;;;3.70;3.40;;;17.80;44.80;;;;;;4989346;28;20454;-44
2021/05/30 02:15:51;;;;;;;4.00;3.60;;;17.80;44.90;;;;;;4987050;28;20446;-45
2021/05/30 02:18:17;;;;;;;5.27;4.67;;;17.80;44.90;;;;;;4988190;28;20572;-44
2021/05/30 02:20:43;;;;;;;3.67;3.37;;;17.90;44.70;;;;;;4988153;28;21060;-44
2021/05/30 02:23:13;;;;;;;4.33;3.30;;;17.90;44.40;;;;;;4988848;28;20195;-45
2021/05/30 02:25:40;;;;;;;3.97;3.57;;;17.90;44.50;;;;;;4993840;28;20194;-48
2021/05/30 02:28:05;;;;;;;4.40;4.00;;;17.90;44.40;;;;;;4992942;28;20505;-45
2021/05/30 02:30:31;;;;;;;3.60;3.20;;;18.00;44.30;;;;;;4989348;28;20967;-45
2021/05/30 02:32:57;;;;;;;5.60;4.53;;;18.00;44.00;;;;;;4990317;28;20218;-45
2021/05/30 02:35:23;;;;;;;4.53;3.87;;;18.00;44.00;;;;;;4992252;28;20861;-44
2021/05/30 02:37:49;;;;;;;4.60;3.60;;;18.10;43.80;;;;;;4992548;28;20365;-44
2021/05/30 02:40:15;;;;;;;4.73;3.60;;;18.00;43.90;;;;;;4990566;28;20199;-44
2021/05/30 02:42:44;;;;;;;6.10;3.37;;;17.90;43.70;;;;;;4991282;28;20191;-44
2021/05/30 02:45:10;;;;;;;3.43;3.13;;;17.70;43.90;;;;;;4987607;28;20807;-45
2021/05/30 02:47:36;;;;;;;3.97;3.67;;;17.50;44.40;;;;;;4985267;28;20445;-44
2021/05/30 02:50:02;;;;;;;3.80;3.43;;;17.20;44.80;;;;;;4989568;28;20650;-48
2021/05/30 02:52:28;;;;;;;3.83;3.53;;;17.00;45.40;;;;;;4987955;28;20445;-45
2021/05/30 02:54:54;;;;;;;4.10;3.33;;;16.80;46.10;;;;;;4989208;28;20445;-46
2021/05/30 02:57:19;;;;;;;4.47;3.57;;;16.60;46.50;;;;;;4985649;28;20277;-47
2021/05/30 02:59:45;;;;;;;5.30;3.30;;;16.40;46.70;;;;;;4988246;28;20186;-45
2021/05/30 03:02:11;;;;;;;3.30;3.00;;;16.30;47.10;;;;;;4989309;28;20211;-44
2021/05/30 03:04:36;;;;;;;3.70;3.40;;;16.10;47.60;;;;;;4986020;28;20298;-47
2021/05/30 03:07:02;;;;;;;4.63;3.83;;;16.10;47.80;;;;;;4989507;28;20257;-45
2021/05/30 03:09:28;;;;;;;3.50;3.20;;;16.00;47.90;;;;;;4990644;28;20230;-44
2021/05/30 03:11:53;;;;;;;4.20;3.80;;;15.90;48.10;;;;;;4994380;28;20221;-44
2021/05/30 03:14:19;;;;;;;3.70;3.13;;;15.80;48.20;;;;;;4987361;28;20203;-47
2021/05/30 03:16:45;;;;;;;3.60;3.30;;;15.80;48.40;;;;;;4987665;28;20554;-44
2021/05/30 03:19:11;;;;;;;3.50;3.20;;;15.70;48.50;;;;;;4988950;28;20195;-46
2021/05/30 03:21:38;;;;;;;3.60;3.30;;;15.60;48.80;;;;;;4993384;28;20527;-45
2021/05/30 03:24:05;;;;;;;6.97;4.00;;;15.60;49.00;;;;;;4988852;28;20191;-44
2021/05/30 03:26:30;;;;;;;3.90;3.50;;;15.60;48.80;;;;;;4987512;28;20445;-45
2021/05/30 03:28:56;;;;;;;4.87;3.47;;;15.50;48.60;;;;;;4991458;28;20497;-44
2021/05/30 03:31:21;;;;;;;3.47;3.20;;;15.50;48.60;;;;;;4991035;28;20198;-46
2021/05/30 03:33:47;;;;;;;3.63;3.33;;;15.40;48.60;;;;;;4986325;28;20277;-43
2021/05/30 03:36:18;;;;;;;3.33;3.03;;;15.30;48.80;;;;;;4991280;28;20244;-44
2021/05/30 03:38:43;;;;;;;3.53;3.23;;;15.30;48.90;;;;;;4987510;28;20284;-45
2021/05/30 03:41:12;;;;;;;3.53;3.23;;;15.20;49.00;;;;;;4992954;28;20446;-45
2021/05/30 03:43:40;;;;;;;4.27;3.87;;;15.20;49.20;;;;;;4986357;28;20198;-47
2021/05/30 03:46:05;;;;;;;4.10;3.80;;;15.20;49.50;;;;;;4980661;28;21003;-43
2021/05/30 03:48:31;;;;;;;4.30;3.90;;;15.20;49.50;;;;;;4984922;28;20442;-44
2021/05/30 03:50:57;;;;;;;4.10;3.70;;;15.20;49.50;;;;;;4991113;28;20198;-47
2021/05/30 03:53:23;;;;;;;3.57;3.27;;;15.20;49.50;;;;;;4989373;28;20659;-44
2021/05/30 03:55:49;;;;;;;3.90;3.60;;;15.10;49.50;;;;;;4990496;28;20457;-43
2021/05/30 03:58:16;;;;;;;5.50;3.83;;;15.10;49.50;;;;;;4989942;28;20199;-43
2021/05/30 04:00:43;;;;;;;3.50;3.20;;;15.00;49.40;;;;;;4988748;28;20438;-44
2021/05/30 04:03:08;;;;;;;4.50;3.43;;;15.00;49.50;;;;;;4991136;28;20998;-44
2021/05/30 04:05:34;;;;;;;3.63;3.33;;;15.00;49.70;;;;;;4990959;28;20525;-47
2021/05/30 04:08:00;;;;;;;4.00;3.13;;;15.00;50.00;;;;;;4987598;28;20504;-44
2021/05/30 04:10:26;;;;;;;3.40;3.10;;;14.90;49.90;;;;;;4990955;28;20233;-44
2021/05/30 04:12:52;;;;;;;3.07;2.87;;;15.00;50.00;;;;;;4989269;28;20194;-43
2021/05/30 04:15:18;;;;;;;3.93;3.63;;;14.90;50.10;;;;;;4986938;28;20551;-46
2021/05/30 04:17:45;;;;;;;3.60;3.30;;;15.00;50.40;;;;;;4986013;28;20536;-43
2021/05/30 04:20:15;;;;;;;3.60;3.30;;;14.90;50.50;;;;;;4988170;28;20241;-45
2021/05/30 04:22:41;;;;;;;3.60;2.93;;;14.90;50.70;;;;;;4988593;28;20492;-46
2021/05/30 04:25:08;;;;;;;3.30;3.00;;;14.90;50.80;;;;;;4982482;28;20528;-43
2021/05/30 04:27:37;;;;;;;3.60;3.30;;;14.90;51.00;;;;;;4987718;28;20249;-43
2021/05/30 04:30:07;;;;;;;4.10;3.77;;;14.90;51.10;;;;;;4989548;28;20489;-44
2021/05/30 04:32:33;;;;;;;4.23;3.67;;;15.00;51.30;;;;;;4987989;28;20441;-43
2021/05/30 04:34:58;;;;;;;4.63;3.57;;;15.00;51.20;;;;;;4988244;28;20980;-43
2021/05/30 04:37:24;;;;;;;5.60;3.27;;;15.00;51.10;;;;;;4991930;28;20603;-43
2021/05/30 04:39:50;;;;;;;4.00;3.60;;;15.10;51.10;;;;;;4989109;28;20297;-44
2021/05/30 04:42:16;;;;;;;4.50;3.63;;;15.10;51.10;;;;;;4989542;28;20285;-44
2021/05/30 04:44:41;;;;;;;5.23;3.90;;;15.20;51.30;;;;;;4988541;28;20199;-44
2021/05/30 04:47:07;;;;;;;9.40;3.67;;;15.20;51.10;;;;;;4992519;28;20186;-44
2021/05/30 04:49:32;;;;;;;3.60;3.27;;;15.30;51.10;;;;;;4983365;28;20237;-43
2021/05/30 04:51:58;;;;;;;3.57;3.27;;;15.30;51.00;;;;;;4985922;28;20206;-43
2021/05/30 04:54:23;;;;;;;3.70;3.40;;;15.40;51.10;;;;;;4990941;28;20217;-45
2021/05/30 04:56:49;;;;;;;3.40;3.10;;;15.40;51.10;;;;;;4988502;28;20214;-44
2021/05/30 04:59:15;;;;;;;4.23;3.20;;;15.50;51.10;;;;;;4985874;28;20203;-44
2021/05/30 05:01:40;;;;;;;4.80;4.27;;;15.60;50.80;;;;;;4988244;28;20195;-43
2021/05/30 05:04:07;;;;;;;3.50;3.20;;;15.70;50.60;;;;;;4985810;28;20646;-43
2021/05/30 05:06:32;;;;;;;5.53;3.50;;;15.70;50.40;;;;;;4984598;28;20217;-45
2021/05/30 05:08:58;;;;;;;3.27;3.07;;;15.80;50.40;;;;;;4989196;28;20973;-43
2021/05/30 05:11:23;;;;;;;2.90;2.60;;;15.80;50.40;;;;;;4988377;28;20191;-44
2021/05/30 05:13:49;;;;;;;4.17;3.20;;;15.90;51.50;;;;;;4990098;28;20203;-45
2021/05/30 05:16:14;;;;;;;4.30;3.30;;;15.90;55.20;;;;;;4990226;28;20194;-44
2021/05/30 05:18:40;;;;;;;6.60;3.17;;;16.30;52.80;;;;;;4991499;28;20193;-46
2021/05/30 05:21:06;;;;;;;3.30;2.40;;;16.70;51.00;;;;;;4985952;28;20563;-44
2021/05/30 05:23:32;;;;;;;4.50;3.47;;;17.10;49.70;;;;;;4987117;28;20290;-44
2021/05/30 05:26:02;;;;;;;4.03;3.37;;;17.30;48.50;;;;;;4986160;28;20199;-47
2021/05/30 05:28:28;;;;;;;6.20;3.10;;;17.50;47.60;;;;;;4986974;28;20506;-48
2021/05/30 05:30:54;;;;;;;3.70;3.03;;;17.70;47.40;;;;;;4990075;28;20489;-43
2021/05/30 05:33:20;;;;;;;3.90;3.53;;;17.90;46.80;;;;;;4989248;28;20456;-46
2021/05/30 05:35:46;;;;;;;5.70;3.80;;;17.70;47.00;;;;;;4986468;28;20225;-46
2021/05/30 05:38:11;;;;;;;4.47;3.83;;;17.90;47.00;;;;;;4986523;28;20568;-46
2021/05/30 05:40:37;;;;;;;4.00;3.60;;;18.10;46.50;;;;;;4989269;28;20199;-44
2021/05/30 05:43:07;;;;;;;3.30;3.00;;;18.30;46.30;;;;;;4983003;28;20199;-45
2021/05/30 05:45:34;;;;;;;4.20;3.10;;;18.60;45.90;;;;;;4991290;28;20207;-45
2021/05/30 05:48:00;;;;;;;4.00;3.60;;;18.70;45.50;;;;;;4991577;28;20960;-45
2021/05/30 05:50:26;;;;;;;3.23;2.97;;;18.80;45.80;;;;;;4988466;28;20567;-45
2021/05/30 05:52:53;;;;;;;3.30;3.00;;;18.90;44.90;;;;;;4990798;28;20437;-48
2021/05/30 05:55:21;;;;;;;3.07;2.87;;;19.00;44.90;;;;;;4983199;28;20857;-45
2021/05/30 05:57:49;;;;;;;6.57;3.37;;;19.10;44.70;;;;;;4987730;28;20445;-48
2021/05/30 06:00:20;;;;;;;4.13;3.50;;;19.20;44.60;;;;;;4984883;28;20444;-48
2021/05/30 06:02:49;;;;;;;6.30;4.00;;;19.30;44.50;;;;;;4981367;28;20493;-48
2021/05/30 06:05:17;;;;;;;5.23;3.73;;;19.40;44.30;;;;;;4988755;28;20438;-49
2021/05/30 06:07:43;;;;;;;3.47;3.17;;;19.50;44.30;;;;;;4988766;28;20446;-47
2021/05/30 06:10:10;;;;;;;3.50;3.20;;;19.50;44.10;;;;;;4987181;28;20821;-48
2021/05/30 06:12:35;;;;;;;4.00;3.30;;;19.60;44.10;;;;;;4986946;28;20213;-46
2021/05/30 06:15:01;;;;;;;6.80;3.87;;;19.70;43.80;;;;;;4989338;28;20430;-48
2021/05/30 06:17:26;;;;;;;3.97;3.50;;;19.80;43.60;;;;;;4990542;28;20245;-47
2021/05/30 06:19:52;;;;;;;5.30;3.97;;;20.00;43.50;;;;;;4991079;28;20273;-48
2021/05/30 06:22:18;;;;;;;3.33;3.03;;;20.10;43.20;;;;;;4988328;28;20694;-49
2021/05/30 06:24:47;;;;;;;4.97;4.47;;;20.10;43.10;;;;;;4986670;28;20195;-47
2021/05/30 06:27:13;;;;;;;4.17;3.87;;;20.10;43.30;;;;;;4990373;28;20199;-47
2021/05/30 06:29:38;;;;;;;3.70;3.40;;;20.10;43.20;;;;;;4989727;28;20480;-47
2021/05/30 06:32:05;;;;;;;3.50;3.03;;;20.10;43.40;;;;;;4989592;28;20195;-45
2021/05/30 06:34:31;;;;;;;5.10;3.93;;;19.80;43.50;;;;;;4984008;28;20199;-47
2021/05/30 06:36:57;;;;;;;4.80;4.40;;;19.80;44.10;;;;;;4992051;28;20433;-48
2021/05/30 06:39:23;;;;;;;4.10;3.70;;;20.00;44.00;;;;;;4994566;28;20476;-46
2021/05/30 06:41:50;;;;;;;4.37;4.07;;;20.20;44.00;;;;;;4995508;28;20209;-49
2021/05/30 06:44:16;;;;;;;4.10;3.80;;;20.40;43.40;;;;;;4986229;28;20788;-48
2021/05/30 06:46:42;;;;;;;4.60;4.20;;;20.50;43.20;;;;;;4986249;28;20434;-48
2021/05/30 06:49:07;;;;;;;4.20;3.80;;;20.60;43.40;;;;;;4994592;28;20229;-46
2021/05/30 06:51:33;;;;;;;4.10;3.80;;;20.80;43.30;;;;;;4993500;28;20202;-48
2021/05/30 06:54:00;;;;;;;3.73;3.43;;;20.90;42.90;;;;;;4993626;28;20191;-48
2021/05/30 06:56:27;;;;;;;5.13;4.67;;;20.70;42.20;;;;;;4995098;28;20207;-46
2021/05/30 06:58:53;;;;;;;4.80;4.40;;;20.60;43.80;;;;;;4994619;28;20436;-49
2021/05/30 07:01:19;;;;;;;4.50;4.13;;;20.70;42.70;;;;;;4994960;28;20425;-45
2021/05/30 07:03:47;;;;;;;3.80;3.40;;;20.70;42.00;;;;;;4993718;28;20529;-46
2021/05/30 07:06:13;;;;;;;3.70;3.40;;;20.70;41.20;;;;;;4995035;28;20436;-45
2021/05/30 07:08:39;;;;;;;4.03;3.73;;;20.70;41.30;;;;;;4994266;28;20488;-48
2021/05/30 07:11:05;;;;;;;4.20;3.47;;;20.60;40.90;;;;;;4994622;28;20450;-49
2021/05/30 07:13:30;;;;;;;3.87;3.57;;;20.70;41.20;;;;;;4993688;28;20245;-46
2021/05/30 07:15:56;;;;;;;3.80;3.50;;;20.90;41.10;;;;;;4992395;28;20217;-45
2021/05/30 07:18:22;;;;;;;3.43;3.20;;;20.80;40.80;;;;;;4992506;28;20205;-49
2021/05/30 07:20:49;;;;;;;4.13;3.47;;;20.70;40.60;;;;;;4994729;28;20203;-46
2021/05/30 07:23:16;;;;;;;3.83;3.53;;;21.00;41.70;;;;;;4994171;28;20932;-49
2021/05/30 07:25:42;;;;;;;6.70;3.70;;;21.20;40.40;;;;;;4989740;28;20782;-46
2021/05/30 07:28:08;;;;;;;4.27;3.47;;;21.40;40.20;;;;;;4988474;28;20439;-45
2021/05/30 07:30:35;;;;;;;3.70;3.40;;;21.70;40.10;;;;;;4989855;28;20487;-45
2021/05/30 07:33:01;;;;;;;4.43;3.80;;;21.70;39.90;;;;;;4994509;28;20585;-47
2021/05/30 07:35:28;;;;;;;4.33;3.50;;;21.70;39.60;;;;;;4990293;28;20438;-45
2021/05/30 07:37:53;;;;;;;3.47;3.20;;;21.80;39.80;;;;;;4986011;28;20474;-45
2021/05/30 07:40:19;;;;;;;3.50;3.20;;;21.70;38.40;;;;;;4993544;28;20453;-49
2021/05/30 07:42:46;;;;;;;3.40;3.10;;;21.80;39.30;;;;;;4994485;28;20191;-49
2021/05/30 07:45:13;;;;;;;3.60;3.30;;;21.70;38.80;;;;;;4991509;28;20190;-45
2021/05/30 07:47:40;;;;;;;2.73;2.53;;;21.80;38.30;;;;;;4989955;28;20434;-45
2021/05/30 07:50:07;;;;;;;3.53;3.10;;;21.80;37.90;;;;;;4992159;28;20485;-45
2021/05/30 07:52:33;;;;;;;3.53;3.23;;;22.00;36.90;;;;;;4994203;28;20477;-44
2021/05/30 07:54:59;;;;;;;3.40;2.97;;;22.10;36.20;;;;;;4992870;28;20463;-45
2021/05/30 07:57:25;;;;;;;3.13;2.93;;;22.10;36.10;;;;;;4992948;28;20429;-46
2021/05/30 07:59:51;;;;;;;3.20;2.90;;;22.40;36.80;;;;;;4993533;28;20929;-48
2021/05/30 08:02:17;;;;;;;4.27;3.20;;;22.70;37.20;;;;;;4993218;28;20226;-49
2021/05/30 08:04:43;;;;;;;3.77;3.47;;;22.50;36.90;;;;;;4992719;28;20525;-45
2021/05/30 08:07:09;;;;;;;3.43;3.07;;;22.80;36.40;;;;;;4989808;28;20977;-49
2021/05/30 08:09:35;;;;;;;4.60;3.00;;;22.90;35.50;;;;;;4990100;28;20281;-48
2021/05/30 08:12:01;;;;;;;4.10;2.87;;;23.20;36.90;;;;;;4991835;28;20481;-46
2021/05/30 08:14:28;;;;;;;6.27;3.13;;;23.30;35.60;;;;;;4993084;28;20422;-47
2021/05/30 08:16:53;;;;;;;3.60;3.20;;;23.60;34.30;;;;;;4993815;28;20429;-46
2021/05/30 08:19:19;;;;;;;3.23;2.90;;;23.50;33.50;;;;;;4992311;28;20499;-45
2021/05/30 08:21:45;;;;;;;2.80;2.60;;;23.10;33.80;;;;;;4993495;28;20201;-47
2021/05/30 08:24:11;;;;;;;5.00;2.63;;;23.00;33.20;;;;;;4991097;28;20194;-49
2021/05/30 08:26:39;;;;;;;2.80;2.60;;;23.20;32.50;;;;;;4993418;28;20194;-45
2021/05/30 08:29:05;;;;;;;3.10;2.90;;;23.30;32.80;;;;;;4992822;28;20480;-49
2021/05/30 08:31:30;;;;;;;6.40;2.77;;;23.30;32.40;;;;;;4986376;28;20508;-45
2021/05/30 08:33:56;;;;;;;2.70;2.50;;;23.40;32.80;;;;;;4992507;28;20634;-44
2021/05/30 08:36:22;;;;;;;3.60;2.67;;;23.30;31.90;;;;;;4993393;28;20277;-46
2021/05/30 08:38:47;;;;;;;2.90;2.70;;;23.40;30.90;;;;;;4990733;28;20223;-47
2021/05/30 08:41:13;;;;;;;2.97;2.77;;;23.00;32.10;;;;;;4991351;28;20603;-48
2021/05/30 08:43:39;;;;;;;2.87;2.67;;;23.00;31.60;;;;;;4991072;28;20222;-48
2021/05/30 08:46:04;;;;;;;3.07;2.87;;;23.30;32.60;;;;;;4993114;28;20191;-47
2021/05/30 08:48:30;;;;;;;4.20;2.80;;;23.20;32.50;;;;;;4992593;28;20197;-46
2021/05/30 08:51:03;;;;;;;4.00;2.60;;;23.20;32.00;;;;;;4987886;28;20683;-47
2021/05/30 08:53:37;;;;;;;3.03;2.80;;;23.40;32.30;;;;;;4991940;28;20521;-46
2021/05/30 08:56:05;;;;;;;2.83;2.57;;;23.30;30.70;;;;;;4992242;28;20450;-47
2021/05/30 08:58:45;;;;;;;3.03;2.60;;;23.60;32.40;;;;;;4989174;28;20470;-45
2021/05/30 09:01:12;;;;;;;2.50;2.30;;;23.50;31.10;;;;;;4989263;28;20437;-46
2021/05/30 09:04:04;;;;;;;2.70;2.50;;;23.80;30.50;;;;;;4986481;28;20437;-45
2021/05/30 09:06:30;;;;;;;3.60;2.60;;;24.10;31.90;;;;;;4991091;28;20454;-49
2021/05/30 09:08:57;;;;;;;3.27;2.80;;;24.30;30.30;;;;;;4984411;28;20537;-45
2021/05/30 09:11:48;;;;;;;3.00;2.70;;;24.80;32.70;;;;;;4992434;28;20484;-47
2021/05/30 09:14:19;;;;;;;2.77;2.57;;;25.10;30.50;;;;;;4981159;28;20802;-49
2021/05/30 09:16:58;;;;;;;2.87;2.60;;;25.40;29.80;;;;;;4987049;28;20450;-49
2021/05/30 09:19:51;;;;;;;3.30;2.90;;;25.50;29.60;;;;;;4980697;28;20445;-48
2021/05/30 09:22:35;;;;;;;3.77;2.40;;;24.70;29.60;;;;;;4987176;28;20450;-48
2021/05/30 09:25:11;;;;;;;2.37;2.20;;;24.40;29.40;;;;;;4983929;28;20447;-48
2021/05/30 09:27:42;;;;;;;4.13;2.90;;;24.30;29.00;;;;;;4991860;28;20787;-47
2021/05/30 09:30:13;;;;;;;3.53;3.23;;;24.50;29.20;;;;;;4990720;28;20492;-45
2021/05/30 09:33:09;;;;;;;2.50;2.30;;;24.40;30.00;;;;;;4986824;28;20465;-47
2021/05/30 09:35:37;;;;;;;3.40;3.20;;;24.50;30.00;;;;;;4987914;28;20426;-47
2021/05/30 09:38:38;;;;;;;3.03;2.83;;;24.60;29.90;;;;;;4991310;28;20929;-48
2021/05/30 09:41:07;;;;;;;2.83;2.63;;;24.80;30.30;;;;;;4981245;28;20476;-47
2021/05/30 09:43:46;;;;;;;5.40;3.30;;;25.10;31.10;;;;;;4987593;28;20457;-45
2021/05/30 09:46:14;;;;;;;3.10;2.63;;;25.50;30.80;;;;;;4991122;28;20511;-45
2021/05/30 09:49:00;;;;;;;2.70;2.50;;;25.70;29.50;;;;;;4985974;28;20458;-44
2021/05/30 09:51:28;;;;;;;4.17;2.83;;;25.80;29.10;;;;;;4983965;28;20508;-46
2021/05/30 09:53:59;;;;;;;3.33;2.60;;;25.50;29.10;;;;;;4986841;28;20957;-49
2021/05/30 09:56:33;;;;;;;3.17;2.87;;;25.80;28.80;;;;;;4989592;28;20525;-49
2021/05/30 09:58:59;;;;;;;3.07;2.80;;;25.80;28.10;;;;;;4988756;28;20437;-47
2021/05/30 10:01:26;;;;;;;2.57;2.37;;;25.70;29.90;;;;;;4990640;28;20437;-46
2021/05/30 10:03:55;;;;;;;3.23;2.67;;;25.90;30.00;;;;;;4989312;28;20499;-45
2021/05/30 10:06:22;;;;;;;2.90;2.70;;;26.00;29.80;;;;;;4988606;28;20530;-45
2021/05/30 10:08:48;;;;;;;3.00;2.80;;;26.20;30.00;;;;;;4987769;28;20448;-50
2021/05/30 10:11:17;;;;;;;3.57;3.10;;;26.20;29.30;;;;;;4989302;28;20524;-50
2021/05/30 10:13:43;;;;;;;3.13;2.83;;;25.90;29.30;;;;;;4989039;28;20557;-48
2021/05/30 10:16:09;;;;;;;3.30;2.93;;;25.90;30.00;;;;;;4992601;28;20516;-48
2021/05/30 10:18:42;;;;;;;3.50;3.20;;;25.80;29.50;;;;;;4993606;28;20595;-46
2021/05/30 10:21:13;;;;;;;3.93;3.00;;;25.40;29.50;;;;;;4993968;28;20430;-45
2021/05/30 10:23:40;;;;;;;3.23;3.03;;;25.70;29.70;;;;;;4993537;28;20441;-46
2021/05/30 10:26:14;;;;;;;5.30;3.23;;;25.90;29.60;;;;;;4994098;28;20734;-45
2021/05/30 10:29:05;;;;;;;3.10;2.80;;;26.10;30.00;;;;;;4987395;28;20442;-45
2021/05/30 10:31:35;;;;;;;3.30;2.97;;;26.10;29.50;;;;;;4993116;28;20515;-49
2021/05/30 10:34:09;;;;;;;3.67;2.87;;;26.20;29.60;;;;;;4992675;28;20442;-50
2021/05/30 10:36:59;;;;;;;4.60;2.70;;;26.50;28.80;;;;;;4986273;28;20451;-45
2021/05/30 10:39:32;;;;;;;2.80;2.60;;;26.60;28.00;;;;;;4988310;28;20477;-47
2021/05/30 10:42:17;;;;;;;2.80;2.60;;;26.30;27.20;;;;;;4992626;28;20456;-47
2021/05/30 10:44:53;;;;;;;2.87;2.60;;;26.40;27.50;;;;;;4988355;28;20438;-48
2021/05/30 10:47:19;;;;;;;3.30;2.50;;;26.30;28.60;;;;;;4990755;28;20588;-47
2021/05/30 10:50:04;;;;;;;3.40;2.50;;;26.50;29.20;;;;;;4993603;28;20500;-47
2021/05/30 10:52:37;;;;;;;2.17;2.03;;;26.80;27.90;;;;;;4993952;28;20442;-46
2021/05/30 10:55:11;;;;;;;9.73;2.47;;;26.90;27.70;;;;;;4991997;28;20434;-45
2021/05/30 10:57:48;;;;;;;3.27;2.80;;;26.90;27.90;;;;;;4991689;28;20429;-45
2021/05/30 11:00:22;;;;;;;2.70;2.50;;;26.80;27.10;;;;;;4993175;28;20437;-46
2021/05/30 11:03:10;;;;;;;3.23;2.70;;;26.80;28.00;;;;;;4993598;28;20457;-45
2021/05/30 11:05:44;;;;;;;2.67;2.47;;;27.20;27.80;;;;;;4993694;28;20473;-46
2021/05/30 11:08:51;;;;;;;2.63;2.43;;;27.10;27.00;;;;;;4993592;28;20441;-46
2021/05/30 11:11:24;;;;;;;3.50;3.00;;;27.20;27.20;;;;;;4913540;29;20487;-47
2021/05/30 11:14:01;;;;;;;3.10;2.90;;;27.30;27.80;;;;;;4983500;28;20560;-50
2021/05/30 11:16:31;;;;;;;2.73;2.47;;;27.40;27.20;;;;;;4993968;28;20457;-46
2021/05/30 11:19:07;;;;;;;2.90;2.60;;;27.60;27.40;;;;;;4993173;28;20437;-47
2021/05/30 11:21:41;;;;;;;2.47;2.37;;;27.90;27.90;;;;;;4993514;28;20437;-46
2021/05/30 11:24:09;;;;;;;2.80;2.60;;;28.20;26.10;;;;;;4987565;28;20441;-47
2021/05/30 11:26:35;;;;;;;3.80;2.70;;;28.30;25.50;;;;;;4993952;28;20468;-50
2021/05/30 11:29:02;;;;;;;2.50;2.30;;;28.40;25.50;;;;;;4992273;28;20950;-47
2021/05/30 11:31:28;;;;;;;2.87;2.67;;;28.10;26.30;;;;;;4993623;28;20547;-46
2021/05/30 11:33:59;;;;;;;2.60;2.43;;;28.00;25.70;;;;;;4991337;28;20433;-47
2021/05/30 11:36:32;;;;;;;3.97;2.40;;;28.10;27.10;;;;;;4995027;28;20214;-50
2021/05/30 11:39:06;;;;;;;2.60;2.50;;;28.20;27.40;;;;;;4983849;28;20482;-49
2021/05/30 11:41:44;;;;;;;3.10;2.60;;;27.90;25.40;;;;;;4995752;28;20437;-49
2021/05/30 11:44:12;;;;;;;2.70;2.50;;;27.60;25.90;;;;;;4990490;28;20812;-50
2021/05/30 11:46:50;;;;;;;2.63;2.43;;;27.40;26.60;;;;;;4989160;28;20921;-51
2021/05/30 11:49:27;;;;;;;4.00;2.60;;;27.60;27.40;;;;;;4990194;28;20551;-46
2021/05/30 11:52:08;;;;;;;2.63;2.30;;;27.70;26.80;;;;;;4989653;28;20442;-47
2021/05/30 11:54:45;;;;;;;2.60;2.43;;;27.80;27.60;;;;;;4989830;28;20441;-48
2021/05/30 11:57:20;;;;;;;3.20;2.53;;;28.10;25.60;;;;;;4988105;28;20520;-46
2021/05/30 12:00:04;;;;;;;2.47;2.30;;;28.30;27.10;;;;;;4991207;28;20457;-45
2021/05/30 12:02:32;;;;;;;2.23;2.10;;;28.60;26.50;;;;;;4991230;28;20460;-46
2021/05/30 12:05:18;;;;;;;4.33;2.70;;;28.50;24.00;;;;;;4989712;28;20528;-46
2021/05/30 12:07:44;;;;;;;2.80;2.37;;;28.40;24.10;;;;;;4990407;28;20445;-46
2021/05/30 12:10:12;;;;;;;3.17;2.30;;;28.60;25.50;;;;;;4991504;28;20489;-48
2021/05/30 12:12:46;;;;;;;2.70;2.50;;;28.80;24.90;;;;;;4997029;28;20495;-46
2021/05/30 12:15:19;;;;;;;2.37;2.17;;;28.80;24.20;;;;;;4985779;28;20586;-47
2021/05/30 12:17:53;;;;;;;3.23;2.70;;;28.70;24.40;;;;;;4988263;28;20501;-46
2021/05/30 12:20:21;;;;;;;2.87;2.57;;;28.80;24.10;;;;;;4980343;28;20444;-50
2021/05/30 12:22:47;;;;;;;3.00;2.57;;;28.80;24.00;;;;;;4987002;28;20437;-48
2021/05/30 12:25:13;;;;;;;3.10;2.20;;;28.70;23.50;;;;;;4978548;28;20880;-49
2021/05/30 12:27:39;;;;;;;2.20;2.00;;;28.50;24.30;;;;;;4987787;28;20875;-51
2021/05/30 12:30:06;;;;;;;5.17;2.87;;;28.60;25.90;;;;;;4986805;28;20494;-52
2021/05/30 12:32:32;;;;;;;2.73;2.50;;;28.70;24.30;;;;;;4987306;28;20453;-50
2021/05/30 12:34:57;;;;;;;2.83;2.50;;;28.90;23.00;;;;;;4985676;28;20918;-52
2021/05/30 12:37:39;;;;;;;4.63;3.23;;;29.10;23.50;;;;;;4990976;28;20638;-52
2021/05/30 12:40:06;;;;;;;3.20;2.83;;;29.30;24.20;;;;;;4983953;28;20210;-52
2021/05/30 12:42:32;;;;;;;3.50;3.20;;;28.90;24.50;;;;;;4989008;28;20430;-51
2021/05/30 12:45:06;;;;;;;2.67;2.47;;;28.80;24.10;;;;;;4992004;28;20445;-50
2021/05/30 12:47:40;;;;;;;3.33;3.00;;;28.60;25.20;;;;;;4990723;28;20190;-49
2021/05/30 12:50:07;;;;;;;3.53;2.83;;;28.80;26.50;;;;;;4992115;28;20995;-52
2021/05/30 12:52:43;;;;;;;3.80;3.40;;;28.90;26.40;;;;;;4992341;28;20461;-46
2021/05/30 12:55:10;;;;;;;5.43;2.97;;;28.50;25.90;;;;;;4991496;28;20535;-50